Terminal Aerodrome Forecast
Issued by NWS

Home | Current Version | Previous Version | Text Only | Print | Product List | Glossary On
Versions: 1 2 3 4 5 6 7 8 9 10 11 12 13 14 15 16 17 18 19 20 21 22 23
471
FTUS41 KBUF 270920 AAA
TAFIAG
TAF AMD
KIAG 270920Z 2709/2806 15006KT P6SM FEW250
     FM271600 18012G18KT P6SM FEW250
     FM272200 20008KT 6SM SHRA VCTS OVC040CB
     FM280100 21010KT P6SM VCSH OVC050
     FM280300 23013G20KT P6SM VCSH BKN130
     FM280500 23012G18KT P6SM BKN200=

USA.gov is the U.S. government's official web portal to all federal, state and local government web resources and services.